Mae Imaculada — CURI2 — position and weather

sailwx.info

Track history (hours):
 
Tides and Currents Weather Stations Pressure Air Temp Water Temp Dewpoint Dewpoint Depression Visibility Wind Speed Wind Dir Waves Ship Positions

Mae Imaculada

Last reported at 2017-Dec-15 14:51 UTC. Time now 2017-Dec-15 23:48 UTC.
Position N 37°00' W 008°49'.

Length 18 m.

Type: Fishing. MMSI: 263411470.

Date/timePositionNaut miles runAvg speedWind from/ knotsBaromVisibWave heightAir tempDewpointWater temp
2017-Dec-15 14:51N 37°00' W 008°49'3 6.9
2017-Dec-15 14:27N 36°60' W 008°46'1 1.3
2017-Dec-15 13:59N 36°60' W 008°46'1 1.2
2017-Dec-15 13:28N 36°59' W 008°45'0 0.1
2017-Dec-15 11:11N 36°60' W 008°46'0 1.8
2017-Dec-15 10:59N 36°60' W 008°46'1 2.4
2017-Dec-15 10:25N 36°59' W 008°45'4 8.0
2017-Dec-15 09:54N 36°55' W 008°43'7 0.4
2017-Dec-14 16:05N 37°00' W 008°49'1 7.8
2017-Dec-14 15:57N 36°60' W 008°48'2 2.4
2017-Dec-14 14:58N 36°60' W 008°45'1 1.5
2017-Dec-14 14:29N 36°59' W 008°46'3 0.8
2017-Dec-14 10:57N 36°57' W 008°45'3 1.4
2017-Dec-14 08:56N 36°55' W 008°42'2 2.4
2017-Dec-14 08:13N 36°53' W 008°43'1 1.4
2017-Dec-14 07:50N 36°53' W 008°42'1 1.6
2017-Dec-14 07:30N 36°53' W 008°41'1 2.0
2017-Dec-14 06:58N 36°52' W 008°41'2 3.9
2017-Dec-14 06:30N 36°52' W 008°43'1 0.9
2017-Dec-14 05:53N 36°52' W 008°43'1 1.4
2017-Dec-14 05:30N 36°52' W 008°42'1 1.3
2017-Dec-14 05:00N 36°52' W 008°41'0 0.1
2017-Dec-14 04:30N 36°52' W 008°41'2 4.2
2017-Dec-14 04:00N 36°53' W 008°43'4 8.3
2017-Dec-14 03:28N 36°56' W 008°48'4 8.4
2017-Dec-14 02:59N 36°58' W 008°52'6 0.4
2017-Dec-13 12:56N 36°60' W 008°45'0 0.8
2017-Dec-13 12:26N 36°60' W 008°45'0 0.1
2017-Dec-13 11:59N 36°59' W 008°45'1 1.7
2017-Dec-13 11:29N 36°59' W 008°46'0 0.4
2017-Dec-13 10:55N 36°60' W 008°46'1 1.4
2017-Dec-13 10:25N 36°60' W 008°45'0 0.5
2017-Dec-13 10:00N 36°60' W 008°45'1 1.6
2017-Dec-13 09:30N 36°60' W 008°46'1 1.4
2017-Dec-13 09:00N 36°60' W 008°47'4 8.0
2017-Dec-13 08:28N 37°00' W 008°53'2 0.2
2017-Dec-12 18:19N 37°00' W 008°50'3 7.1
2017-Dec-12 17:52N 36°60' W 008°46'0 0.9
2017-Dec-12 17:27N 36°59' W 008°46'2 4.6
2017-Dec-12 17:00N 36°58' W 008°44'4 8.1
2017-Dec-12 16:30N 36°54' W 008°45'2 3.6
2017-Dec-12 15:58N 36°53' W 008°42'0 1.0
2017-Dec-12 15:30N 36°53' W 008°43'1 1.1
2017-Dec-12 14:54N 36°53' W 008°44'0 0.7
2017-Dec-12 14:30N 36°53' W 008°44'4 5.0
2017-Dec-12 13:40N 36°51' W 008°39'1 4.5
2017-Dec-12 13:29N 36°51' W 008°40'1 1.3
2017-Dec-12 13:00N 36°51' W 008°41'1 1.8
2017-Dec-12 12:30N 36°51' W 008°42'1 1.2
2017-Dec-12 11:53N 36°51' W 008°43'2 6.0
2017-Dec-12 11:30N 36°52' W 008°40'0 0.3
2017-Dec-12 11:00N 36°52' W 008°40'1 1.3
2017-Dec-12 10:30N 36°52' W 008°40'1 1.3
2017-Dec-12 10:00N 36°52' W 008°40'0 0.6
2017-Dec-12 09:29N 36°52' W 008°41'1 1.6
2017-Dec-12 09:00N 36°52' W 008°40'0 0.2
2017-Dec-12 08:29N 36°52' W 008°40'2 3.4
2017-Dec-12 08:00N 36°53' W 008°39'4 7.9
2017-Dec-12 07:30N 36°57' W 008°39'4 7.9
2017-Dec-12 07:00N 37°01' W 008°40'4 8.0
2017-Dec-12 06:30N 37°05' W 008°39'1 2.7
2017-Dec-12 06:00N 37°06' W 008°40'0 0.0
2017-Dec-12 05:30N 37°06' W 008°40'0 0.0
2017-Dec-12 04:19N 37°06' W 008°40'0 0.0
2017-Dec-12 04:00N 37°06' W 008°40'0 0.0
2017-Dec-11 22:51N 37°06' W 008°40'0 0.0
2017-Dec-11 18:44N 37°06' W 008°40'0 0.0
2017-Dec-11 18:30N 37°06' W 008°40'0 0.0
2017-Dec-11 18:00N 37°06' W 008°40'0 0.0
2017-Dec-11 17:30N 37°06' W 008°40'0 0.0
2017-Dec-11 16:59N 37°06' W 008°40'0 0.0
2017-Dec-11 16:29N 37°06' W 008°40'0 0.0
2017-Dec-11 15:59N 37°06' W 008°40'0 0.0
2017-Dec-11 15:20N 37°06' W 008°40'0 0.0
2017-Dec-11 15:00N 37°06' W 008°40'0 0.0
2017-Dec-11 14:26N 37°06' W 008°40'0 0.0
2017-Dec-11 13:59N 37°06' W 008°40'0 0.0
2017-Dec-11 13:30N 37°06' W 008°40'0 0.0
2017-Dec-11 13:00N 37°06' W 008°40'0 0.0
2017-Dec-11 12:30N 37°06' W 008°40'0 0.0
2017-Dec-11 12:00N 37°06' W 008°40'0 0.0
2017-Dec-11 11:29N 37°06' W 008°40'0 0.0
2017-Dec-11 10:58N 37°06' W 008°40'0 0.0
2017-Dec-11 10:30N 37°06' W 008°40'0 0.0
2017-Dec-11 10:00N 37°06' W 008°40'0 0.0
2017-Dec-11 09:30N 37°06' W 008°40'0 0.0
2017-Dec-11 08:59N 37°06' W 008°40'0 0.0
2017-Dec-11 08:30N 37°06' W 008°40'0 0.0
2017-Dec-11 07:57N 37°06' W 008°40'0 0.0
2017-Dec-11 07:30N 37°06' W 008°40'0 0.0
2017-Dec-11 06:53N 37°06' W 008°40'0 0.0
2017-Dec-11 06:29N 37°06' W 008°40'0 0.0
2017-Dec-11 06:00N 37°06' W 008°40'0 0.0
2017-Dec-11 05:30N 37°06' W 008°40'0 0.0
2017-Dec-11 04:59N 37°06' W 008°40'0 0.0
2017-Dec-11 04:30N 37°06' W 008°40'0 0.0
2017-Dec-11 04:00N 37°06' W 008°40'0 0.0
2017-Dec-11 03:30N 37°06' W 008°40'0 0.0
2017-Dec-11 03:00N 37°06' W 008°40'0 0.0
2017-Dec-11 02:30N 37°06' W 008°40'0 0.0
2017-Dec-11 02:00N 37°06' W 008°40'0 0.0
2017-Dec-11 01:30N 37°06' W 008°40'0 0.0
2017-Dec-11 01:00N 37°06' W 008°40'0 0.0
2017-Dec-10 22:10N 37°06' W 008°40'0 0.0
2017-Dec-10 22:00N 37°06' W 008°40'0 0.0
2017-Dec-10 17:51N 37°06' W 008°40'0 0.0
2017-Dec-10 17:30N 37°06' W 008°40'0 0.0
2017-Dec-10 17:00N 37°06' W 008°40'0 0.0
2017-Dec-10 16:30N 37°06' W 008°40'2 3.0
2017-Dec-10 16:00N 37°05' W 008°39'4 7.7
2017-Dec-10 15:30N 37°01' W 008°39'4 7.8
2017-Dec-10 15:01N 36°58' W 008°39'4 7.7
2017-Dec-10 14:31N 36°54' W 008°40'2 2.6
2017-Dec-10 13:55N 36°53' W 008°42'0 0.5
2017-Dec-10 13:30N 36°53' W 008°42'1 1.2
2017-Dec-10 12:53N 36°53' W 008°41'0 0.6
2017-Dec-10 12:28N 36°53' W 008°40'4 4.6
2017-Dec-10 11:39N 36°56' W 008°43'1 8.0
2017-Dec-10 11:30N 36°57' W 008°43'3 5.7
2017-Dec-10 11:00N 36°60' W 008°45'1 1.3
2017-Dec-10 10:30N 36°60' W 008°46'0 0.5
2017-Dec-10 09:59N 36°60' W 008°46'1 1.5
2017-Dec-10 09:30N 36°60' W 008°46'1 1.2
2017-Dec-10 09:00N 36°60' W 008°45'1 1.0
2017-Dec-10 08:30N 36°60' W 008°44'1 1.6
2017-Dec-10 08:00N 36°60' W 008°45'2 4.7
2017-Dec-10 07:30N 37°01' W 008°43'4 7.4
2017-Dec-10 07:01N 37°04' W 008°40'2 4.6
2017-Dec-10 06:29N 37°06' W 008°40'0 0.0
2017-Dec-10 06:00N 37°06' W 008°40'0 0.0
2017-Dec-09 23:14N 37°06' W 008°40'0 0.0
2017-Dec-09 23:00N 37°06' W 008°40'0 0.0
2017-Dec-09 22:30N 37°06' W 008°40'0 0.0
2017-Dec-09 22:00N 37°06' W 008°40'0 0.0
2017-Dec-09 21:19N 37°06' W 008°40'0 0.0
2017-Dec-09 21:00N 37°06' W 008°40'0 0.0
2017-Dec-09 20:30N 37°06' W 008°40'0 0.0
2017-Dec-09 20:00N 37°06' W 008°40'0 0.0
2017-Dec-09 18:42N 37°06' W 008°40'0 0.0
2017-Dec-09 18:30N 37°06' W 008°40'2 4.9
2017-Dec-09 18:00N 37°04' W 008°40'4 7.0
2017-Dec-09 17:30N 37°01' W 008°42'3 5.0
2017-Dec-09 17:00N 36°60' W 008°45'1 2.5
2017-Dec-09 16:30N 36°59' W 008°46'1 1.7
2017-Dec-09 16:00N 36°60' W 008°45'1 1.5
2017-Dec-09 15:30N 36°60' W 008°46'0 1.0
2017-Dec-09 15:00N 36°59' W 008°47'1 1.8
2017-Dec-09 14:30N 36°59' W 008°46'1 1.4
2017-Dec-09 14:00N 36°60' W 008°45'0 0.7
2017-Dec-09 13:30N 36°60' W 008°45'2 4.5
2017-Dec-09 13:00N 36°59' W 008°43'4 7.0
2017-Dec-09 12:30N 36°57' W 008°39'1 1.3
2017-Dec-09 12:00N 36°56' W 008°39'1 1.6
2017-Dec-09 11:30N 36°55' W 008°40'0 0.8
2017-Dec-09 11:00N 36°55' W 008°40'3 6.6
2017-Dec-09 10:29N 36°56' W 008°44'2 3.4
2017-Dec-09 09:55N 36°55' W 008°42'1 1.7
2017-Dec-09 09:25N 36°55' W 008°43'1 1.2
2017-Dec-09 08:49N 36°55' W 008°44'0 0.8
2017-Dec-09 08:21N 36°55' W 008°44'0 0.4
2017-Dec-09 07:24N 36°56' W 008°45'0 0.7
2017-Dec-09 06:57N 36°56' W 008°45'0 0.4
2017-Dec-09 06:29N 36°56' W 008°45'1 1.5
2017-Dec-09 05:56N 36°56' W 008°44'4 7.7
2017-Dec-09 05:25N 36°60' W 008°44'3 7.5
2017-Dec-09 05:00N 37°02' W 008°42'4 7.3
2017-Dec-09 04:30N 37°05' W 008°39'1 0.5
2017-Dec-09 01:36N 37°06' W 008°40'0 0.0
2017-Dec-09 01:30N 37°06' W 008°40'0 0.0
2017-Dec-09 01:00N 37°06' W 008°40'0 0.0
2017-Dec-08 21:13N 37°06' W 008°40'0 0.0
2017-Dec-08 21:00N 37°06' W 008°40'0 0.0
2017-Dec-08 20:31N 37°06' W 008°40'0 0.0
2017-Dec-08 20:00N 37°06' W 008°40'3 6.5
2017-Dec-08 19:31N 37°03' W 008°41'4 7.8
2017-Dec-08 19:01N 37°00' W 008°44'2 4.0
2017-Dec-08 18:30N 36°60' W 008°46'1 2.7
2017-Dec-08 18:00N 36°60' W 008°45'1 1.2
2017-Dec-08 17:30N 36°60' W 008°45'1 1.3
2017-Dec-08 17:00N 36°60' W 008°46'0 0.4
2017-Dec-08 16:31N 36°60' W 008°46'1 1.1
2017-Dec-08 16:00N 36°60' W 008°45'0 0.6
2017-Dec-08 15:27N 36°59' W 008°46'1 2.4
2017-Dec-08 15:00N 36°59' W 008°44'4 8.2
2017-Dec-08 14:27N 36°54' W 008°44'3 4.6
2017-Dec-08 13:54N 36°53' W 008°42'1 1.4
2017-Dec-08 13:30N 36°52' W 008°43'1 2.4
2017-Dec-08 13:01N 36°52' W 008°41'1 1.5
2017-Dec-08 12:31N 36°52' W 008°42'1 1.5
2017-Dec-08 12:00N 36°52' W 008°43'1 1.0
2017-Dec-08 11:30N 36°52' W 008°44'0 0.7
2017-Dec-08 10:58N 36°52' W 008°43'1 1.9
2017-Dec-08 10:31N 36°52' W 008°42'1 1.1
2017-Dec-08 10:01N 36°52' W 008°42'1 1.7
2017-Dec-08 09:31N 36°52' W 008°43'1 1.1
2017-Dec-08 09:00N 36°52' W 008°43'0 1.0
2017-Dec-08 08:30N 36°52' W 008°43'0 0.6
2017-Dec-08 07:55N 36°51' W 008°43'0 1.2
2017-Dec-08 07:31N 36°52' W 008°43'4 8.1
2017-Dec-08 07:00N 36°55' W 008°46'5 8.3
2017-Dec-08 06:28N 36°58' W 008°50'4 8.1
2017-Dec-08 06:01N 36°60' W 008°54'2 2.9
2017-Dec-08 05:26N 37°01' W 008°56'0 0.0
2017-Dec-07 22:17N 37°01' W 008°56'0 0.0
2017-Dec-07 21:48N 37°01' W 008°56'5 0.5
2017-Dec-07 11:46N 37°00' W 008°50'2 8.5
2017-Dec-07 11:30N 36°60' W 008°47'1 1.6
2017-Dec-07 11:00N 36°60' W 008°46'1 2.0
2017-Dec-07 10:30N 36°60' W 008°45'1 1.5
2017-Dec-07 10:00N 36°60' W 008°46'1 1.4
2017-Dec-07 09:30N 36°60' W 008°47'0 0.4
2017-Dec-07 09:00N 36°59' W 008°47'1 1.2
2017-Dec-07 08:30N 36°59' W 008°46'0 0.8
2017-Dec-07 07:59N 36°60' W 008°45'0 0.4
2017-Dec-07 07:28N 36°60' W 008°45'0 0.3
2017-Dec-07 06:58N 36°60' W 008°45'8 1.2
2017-Dec-07 00:44N 37°06' W 008°40'0 0.0
2017-Dec-07 00:30N 37°06' W 008°40'0 0.0
2017-Dec-07 00:00N 37°06' W 008°40'0 0.0
2017-Dec-06 23:30N 37°06' W 008°40'0 0.0
2017-Dec-06 23:01N 37°06' W 008°40'0 0.0
2017-Dec-06 22:30N 37°06' W 008°40'0 0.0
2017-Dec-06 22:00N 37°06' W 008°40'0 0.0
2017-Dec-06 21:30N 37°06' W 008°40'0 0.0
2017-Dec-06 20:57N 37°06' W 008°40'  
Track history (hours):
 
Tides and Currents Weather Stations Pressure Air Temp Water Temp Dewpoint Dewpoint Depression Visibility Wind Speed Wind Dir Waves Ship Positions

Mae Imaculada

Last reported at 2017-Dec-15 14:51 UTC. Time now 2017-Dec-15 23:48 UTC.
Position N 37°00' W 008°49'.

Length 18 m.

Type: Fishing. MMSI: 263411470.

Date/timePositionNaut miles runAvg speedWind from/ knotsBaromVisibWave heightAir tempDewpointWater temp
2017-Dec-15 14:51N 37°00' W 008°49'3 6.9
2017-Dec-15 14:27N 36°60' W 008°46'1 1.3
2017-Dec-15 13:59N 36°60' W 008°46'1 1.2
2017-Dec-15 13:28N 36°59' W 008°45'0 0.1
2017-Dec-15 11:11N 36°60' W 008°46'0 1.8
2017-Dec-15 10:59N 36°60' W 008°46'1 2.4
2017-Dec-15 10:25N 36°59' W 008°45'4 8.0
2017-Dec-15 09:54N 36°55' W 008°43'7 0.4
2017-Dec-14 16:05N 37°00' W 008°49'1 7.8
2017-Dec-14 15:57N 36°60' W 008°48'2 2.4
2017-Dec-14 14:58N 36°60' W 008°45'1 1.5
2017-Dec-14 14:29N 36°59' W 008°46'3 0.8
2017-Dec-14 10:57N 36°57' W 008°45'3 1.4
2017-Dec-14 08:56N 36°55' W 008°42'2 2.4
2017-Dec-14 08:13N 36°53' W 008°43'1 1.4
2017-Dec-14 07:50N 36°53' W 008°42'1 1.6
2017-Dec-14 07:30N 36°53' W 008°41'1 2.0
2017-Dec-14 06:58N 36°52' W 008°41'2 3.9
2017-Dec-14 06:30N 36°52' W 008°43'1 0.9
2017-Dec-14 05:53N 36°52' W 008°43'1 1.4
2017-Dec-14 05:30N 36°52' W 008°42'1 1.3
2017-Dec-14 05:00N 36°52' W 008°41'0 0.1
2017-Dec-14 04:30N 36°52' W 008°41'2 4.2
2017-Dec-14 04:00N 36°53' W 008°43'4 8.3
2017-Dec-14 03:28N 36°56' W 008°48'4 8.4
2017-Dec-14 02:59N 36°58' W 008°52'6 0.4
2017-Dec-13 12:56N 36°60' W 008°45'0 0.8
2017-Dec-13 12:26N 36°60' W 008°45'0 0.1
2017-Dec-13 11:59N 36°59' W 008°45'1 1.7
2017-Dec-13 11:29N 36°59' W 008°46'0 0.4
2017-Dec-13 10:55N 36°60' W 008°46'1 1.4
2017-Dec-13 10:25N 36°60' W 008°45'0 0.5
2017-Dec-13 10:00N 36°60' W 008°45'1 1.6
2017-Dec-13 09:30N 36°60' W 008°46'1 1.4
2017-Dec-13 09:00N 36°60' W 008°47'4 8.0
2017-Dec-13 08:28N 37°00' W 008°53'2 0.2
2017-Dec-12 18:19N 37°00' W 008°50'3 7.1
2017-Dec-12 17:52N 36°60' W 008°46'0 0.9
2017-Dec-12 17:27N 36°59' W 008°46'2 4.6
2017-Dec-12 17:00N 36°58' W 008°44'4 8.1
2017-Dec-12 16:30N 36°54' W 008°45'2 3.6
2017-Dec-12 15:58N 36°53' W 008°42'0 1.0
2017-Dec-12 15:30N 36°53' W 008°43'1 1.1
2017-Dec-12 14:54N 36°53' W 008°44'0 0.7
2017-Dec-12 14:30N 36°53' W 008°44'4 5.0
2017-Dec-12 13:40N 36°51' W 008°39'1 4.5
2017-Dec-12 13:29N 36°51' W 008°40'1 1.3
2017-Dec-12 13:00N 36°51' W 008°41'1 1.8
2017-Dec-12 12:30N 36°51' W 008°42'1 1.2
2017-Dec-12 11:53N 36°51' W 008°43'2 6.0
2017-Dec-12 11:30N 36°52' W 008°40'0 0.3
2017-Dec-12 11:00N 36°52' W 008°40'1 1.3
2017-Dec-12 10:30N 36°52' W 008°40'1 1.3
2017-Dec-12 10:00N 36°52' W 008°40'0 0.6
2017-Dec-12 09:29N 36°52' W 008°41'1 1.6
2017-Dec-12 09:00N 36°52' W 008°40'0 0.2
2017-Dec-12 08:29N 36°52' W 008°40'2 3.4
2017-Dec-12 08:00N 36°53' W 008°39'4 7.9
2017-Dec-12 07:30N 36°57' W 008°39'4 7.9
2017-Dec-12 07:00N 37°01' W 008°40'4 8.0
2017-Dec-12 06:30N 37°05' W 008°39'1 2.7
2017-Dec-12 06:00N 37°06' W 008°40'0 0.0
2017-Dec-12 05:30N 37°06' W 008°40'0 0.0
2017-Dec-12 04:19N 37°06' W 008°40'0 0.0
2017-Dec-12 04:00N 37°06' W 008°40'0 0.0
2017-Dec-11 22:51N 37°06' W 008°40'0 0.0
2017-Dec-11 18:44N 37°06' W 008°40'0 0.0
2017-Dec-11 18:30N 37°06' W 008°40'0 0.0
2017-Dec-11 18:00N 37°06' W 008°40'0 0.0
2017-Dec-11 17:30N 37°06' W 008°40'0 0.0
2017-Dec-11 16:59N 37°06' W 008°40'0 0.0
2017-Dec-11 16:29N 37°06' W 008°40'0 0.0
2017-Dec-11 15:59N 37°06' W 008°40'0 0.0
2017-Dec-11 15:20N 37°06' W 008°40'0 0.0
2017-Dec-11 15:00N 37°06' W 008°40'0 0.0
2017-Dec-11 14:26N 37°06' W 008°40'0 0.0
2017-Dec-11 13:59N 37°06' W 008°40'0 0.0
2017-Dec-11 13:30N 37°06' W 008°40'0 0.0
2017-Dec-11 13:00N 37°06' W 008°40'0 0.0
2017-Dec-11 12:30N 37°06' W 008°40'0 0.0
2017-Dec-11 12:00N 37°06' W 008°40'0 0.0
2017-Dec-11 11:29N 37°06' W 008°40'0 0.0
2017-Dec-11 10:58N 37°06' W 008°40'0 0.0
2017-Dec-11 10:30N 37°06' W 008°40'0 0.0
2017-Dec-11 10:00N 37°06' W 008°40'0 0.0
2017-Dec-11 09:30N 37°06' W 008°40'0 0.0
2017-Dec-11 08:59N 37°06' W 008°40'0 0.0
2017-Dec-11 08:30N 37°06' W 008°40'0 0.0
2017-Dec-11 07:57N 37°06' W 008°40'0 0.0
2017-Dec-11 07:30N 37°06' W 008°40'0 0.0
2017-Dec-11 06:53N 37°06' W 008°40'0 0.0
2017-Dec-11 06:29N 37°06' W 008°40'0 0.0
2017-Dec-11 06:00N 37°06' W 008°40'0 0.0
2017-Dec-11 05:30N 37°06' W 008°40'0 0.0
2017-Dec-11 04:59N 37°06' W 008°40'0 0.0
2017-Dec-11 04:30N 37°06' W 008°40'0 0.0
2017-Dec-11 04:00N 37°06' W 008°40'0 0.0
2017-Dec-11 03:30N 37°06' W 008°40'0 0.0
2017-Dec-11 03:00N 37°06' W 008°40'0 0.0
2017-Dec-11 02:30N 37°06' W 008°40'0 0.0
2017-Dec-11 02:00N 37°06' W 008°40'0 0.0
2017-Dec-11 01:30N 37°06' W 008°40'0 0.0
2017-Dec-11 01:00N 37°06' W 008°40'0 0.0
2017-Dec-10 22:10N 37°06' W 008°40'0 0.0
2017-Dec-10 22:00N 37°06' W 008°40'0 0.0
2017-Dec-10 17:51N 37°06' W 008°40'0 0.0
2017-Dec-10 17:30N 37°06' W 008°40'0 0.0
2017-Dec-10 17:00N 37°06' W 008°40'0 0.0
2017-Dec-10 16:30N 37°06' W 008°40'2 3.0
2017-Dec-10 16:00N 37°05' W 008°39'4 7.7
2017-Dec-10 15:30N 37°01' W 008°39'4 7.8
2017-Dec-10 15:01N 36°58' W 008°39'4 7.7
2017-Dec-10 14:31N 36°54' W 008°40'2 2.6
2017-Dec-10 13:55N 36°53' W 008°42'0 0.5
2017-Dec-10 13:30N 36°53' W 008°42'1 1.2
2017-Dec-10 12:53N 36°53' W 008°41'0 0.6
2017-Dec-10 12:28N 36°53' W 008°40'4 4.6
2017-Dec-10 11:39N 36°56' W 008°43'1 8.0
2017-Dec-10 11:30N 36°57' W 008°43'3 5.7
2017-Dec-10 11:00N 36°60' W 008°45'1 1.3
2017-Dec-10 10:30N 36°60' W 008°46'0 0.5
2017-Dec-10 09:59N 36°60' W 008°46'1 1.5
2017-Dec-10 09:30N 36°60' W 008°46'1 1.2
2017-Dec-10 09:00N 36°60' W 008°45'1 1.0
2017-Dec-10 08:30N 36°60' W 008°44'1 1.6
2017-Dec-10 08:00N 36°60' W 008°45'2 4.7
2017-Dec-10 07:30N 37°01' W 008°43'4 7.4
2017-Dec-10 07:01N 37°04' W 008°40'2 4.6
2017-Dec-10 06:29N 37°06' W 008°40'0 0.0
2017-Dec-10 06:00N 37°06' W 008°40'0 0.0
2017-Dec-09 23:14N 37°06' W 008°40'0 0.0
2017-Dec-09 23:00N 37°06' W 008°40'0 0.0
2017-Dec-09 22:30N 37°06' W 008°40'0 0.0
2017-Dec-09 22:00N 37°06' W 008°40'0 0.0
2017-Dec-09 21:19N 37°06' W 008°40'0 0.0
2017-Dec-09 21:00N 37°06' W 008°40'0 0.0
2017-Dec-09 20:30N 37°06' W 008°40'0 0.0
2017-Dec-09 20:00N 37°06' W 008°40'0 0.0
2017-Dec-09 18:42N 37°06' W 008°40'0 0.0
2017-Dec-09 18:30N 37°06' W 008°40'2 4.9
2017-Dec-09 18:00N 37°04' W 008°40'4 7.0
2017-Dec-09 17:30N 37°01' W 008°42'3 5.0
2017-Dec-09 17:00N 36°60' W 008°45'1 2.5
2017-Dec-09 16:30N 36°59' W 008°46'1 1.7
2017-Dec-09 16:00N 36°60' W 008°45'1 1.5
2017-Dec-09 15:30N 36°60' W 008°46'0 1.0
2017-Dec-09 15:00N 36°59' W 008°47'1 1.8
2017-Dec-09 14:30N 36°59' W 008°46'1 1.4
2017-Dec-09 14:00N 36°60' W 008°45'0 0.7
2017-Dec-09 13:30N 36°60' W 008°45'2 4.5
2017-Dec-09 13:00N 36°59' W 008°43'4 7.0
2017-Dec-09 12:30N 36°57' W 008°39'1 1.3
2017-Dec-09 12:00N 36°56' W 008°39'1 1.6
2017-Dec-09 11:30N 36°55' W 008°40'0 0.8
2017-Dec-09 11:00N 36°55' W 008°40'3 6.6
2017-Dec-09 10:29N 36°56' W 008°44'2 3.4
2017-Dec-09 09:55N 36°55' W 008°42'1 1.7
2017-Dec-09 09:25N 36°55' W 008°43'1 1.2
2017-Dec-09 08:49N 36°55' W 008°44'0 0.8
2017-Dec-09 08:21N 36°55' W 008°44'0 0.4
2017-Dec-09 07:24N 36°56' W 008°45'0 0.7
2017-Dec-09 06:57N 36°56' W 008°45'0 0.4
2017-Dec-09 06:29N 36°56' W 008°45'1 1.5
2017-Dec-09 05:56N 36°56' W 008°44'4 7.7
2017-Dec-09 05:25N 36°60' W 008°44'3 7.5
2017-Dec-09 05:00N 37°02' W 008°42'4 7.3
2017-Dec-09 04:30N 37°05' W 008°39'1 0.5
2017-Dec-09 01:36N 37°06' W 008°40'0 0.0
2017-Dec-09 01:30N 37°06' W 008°40'0 0.0
2017-Dec-09 01:00N 37°06' W 008°40'0 0.0
2017-Dec-08 21:13N 37°06' W 008°40'0 0.0
2017-Dec-08 21:00N 37°06' W 008°40'0 0.0
2017-Dec-08 20:31N 37°06' W 008°40'0 0.0
2017-Dec-08 20:00N 37°06' W 008°40'3 6.5
2017-Dec-08 19:31N 37°03' W 008°41'4 7.8
2017-Dec-08 19:01N 37°00' W 008°44'2 4.0
2017-Dec-08 18:30N 36°60' W 008°46'1 2.7
2017-Dec-08 18:00N 36°60' W 008°45'1 1.2
2017-Dec-08 17:30N 36°60' W 008°45'1 1.3
2017-Dec-08 17:00N 36°60' W 008°46'0 0.4
2017-Dec-08 16:31N 36°60' W 008°46'1 1.1
2017-Dec-08 16:00N 36°60' W 008°45'0 0.6
2017-Dec-08 15:27N 36°59' W 008°46'1 2.4
2017-Dec-08 15:00N 36°59' W 008°44'4 8.2
2017-Dec-08 14:27N 36°54' W 008°44'3 4.6
2017-Dec-08 13:54N 36°53' W 008°42'1 1.4
2017-Dec-08 13:30N 36°52' W 008°43'1 2.4
2017-Dec-08 13:01N 36°52' W 008°41'1 1.5
2017-Dec-08 12:31N 36°52' W 008°42'1 1.5
2017-Dec-08 12:00N 36°52' W 008°43'1 1.0
2017-Dec-08 11:30N 36°52' W 008°44'0 0.7
2017-Dec-08 10:58N 36°52' W 008°43'1 1.9
2017-Dec-08 10:31N 36°52' W 008°42'1 1.1
2017-Dec-08 10:01N 36°52' W 008°42'1 1.7
2017-Dec-08 09:31N 36°52' W 008°43'1 1.1
2017-Dec-08 09:00N 36°52' W 008°43'0 1.0
2017-Dec-08 08:30N 36°52' W 008°43'0 0.6
2017-Dec-08 07:55N 36°51' W 008°43'0 1.2
2017-Dec-08 07:31N 36°52' W 008°43'4 8.1
2017-Dec-08 07:00N 36°55' W 008°46'5 8.3
2017-Dec-08 06:28N 36°58' W 008°50'4 8.1
2017-Dec-08 06:01N 36°60' W 008°54'2 2.9
2017-Dec-08 05:26N 37°01' W 008°56'0 0.0
2017-Dec-07 22:17N 37°01' W 008°56'0 0.0
2017-Dec-07 21:48N 37°01' W 008°56'5 0.5
2017-Dec-07 11:46N 37°00' W 008°50'2 8.5
2017-Dec-07 11:30N 36°60' W 008°47'1 1.6
2017-Dec-07 11:00N 36°60' W 008°46'1 2.0
2017-Dec-07 10:30N 36°60' W 008°45'1 1.5
2017-Dec-07 10:00N 36°60' W 008°46'1 1.4
2017-Dec-07 09:30N 36°60' W 008°47'0 0.4
2017-Dec-07 09:00N 36°59' W 008°47'1 1.2
2017-Dec-07 08:30N 36°59' W 008°46'0 0.8
2017-Dec-07 07:59N 36°60' W 008°45'0 0.4
2017-Dec-07 07:28N 36°60' W 008°45'0 0.3
2017-Dec-07 06:58N 36°60' W 008°45'8 1.2
2017-Dec-07 00:44N 37°06' W 008°40'0 0.0
2017-Dec-07 00:30N 37°06' W 008°40'0 0.0
2017-Dec-07 00:00N 37°06' W 008°40'0 0.0
2017-Dec-06 23:30N 37°06' W 008°40'0 0.0
2017-Dec-06 23:01N 37°06' W 008°40'0 0.0
2017-Dec-06 22:30N 37°06' W 008°40'0 0.0
2017-Dec-06 22:00N 37°06' W 008°40'0 0.0
2017-Dec-06 21:30N 37°06' W 008°40'0 0.0
2017-Dec-06 20:57N 37°06' W 008°40'  

Dump ship's entire track history